Time;durP1;ratioP1;P1;durP2;ratioP2;P2;SDS_P1;SDS_P2;PMS_P1;PMS_P2;Temp;Humidity;BMP_temperature;BMP_pressure;BME280_temperature;BME280_humidity;BME280_pressure;Samples;Min_cycle;Max_cycle;Signal;HPM_P1;HPM_P2
2023/06/20 00:00:59;;;;;;;7.38;3.90;;;24.50;1.00;;;;;;4915284;29;20153;-53
2023/06/20 00:03:26;;;;;;;6.90;4.15;;;24.50;1.00;;;;;;4915302;29;20571;-52
2023/06/20 00:05:52;;;;;;;6.55;4.07;;;24.50;1.00;;;;;;4915622;29;20048;-51
2023/06/20 00:08:19;;;;;;;5.97;3.90;;;24.50;1.00;;;;;;4915596;29;20123;-57
2023/06/20 00:10:46;;;;;;;5.07;3.40;;;24.50;1.00;;;;;;4915331;29;20501;-51
2023/06/20 00:13:13;;;;;;;4.75;3.50;;;24.50;1.00;;;;;;4915314;29;20511;-51
2023/06/20 00:15:41;;;;;;;5.03;3.45;;;24.50;1.00;;;;;;4915398;29;20048;-52
2023/06/20 00:18:08;;;;;;;10.35;4.20;;;24.50;1.00;;;;;;4915423;29;20048;-52
2023/06/20 00:20:35;;;;;;;7.90;4.50;;;24.50;1.00;;;;;;4915321;29;20238;-51
2023/06/20 00:23:02;;;;;;;6.22;3.92;;;24.50;1.00;;;;;;4915199;29;20052;-53
2023/06/20 00:28:31;;;;;;;5.55;4.07;;;24.50;1.00;;;;;;4947812;23;20108;-52
2023/06/20 00:30:58;;;;;;;4.65;3.47;;;24.50;1.00;;;;;;4900379;29;20040;-51
2023/06/20 00:33:25;;;;;;;6.53;3.83;;;24.50;1.00;;;;;;4898646;29;20090;-51
2023/06/20 00:35:51;;;;;;;4.32;2.92;;;24.50;1.00;;;;;;4900189;29;20520;-52
2023/06/20 00:38:18;;;;;;;5.88;3.78;;;24.50;1.00;;;;;;4911375;29;20385;-51
2023/06/20 00:40:45;;;;;;;6.32;4.22;;;24.50;1.00;;;;;;4917591;29;20052;-51
2023/06/20 00:43:12;;;;;;;4.95;3.33;;;24.50;1.00;;;;;;4917354;29;20040;-51
2023/06/20 00:45:39;;;;;;;8.05;4.72;;;24.50;1.00;;;;;;4918964;29;20044;-50
2023/06/20 00:48:07;;;;;;;5.38;3.58;;;24.50;1.00;;;;;;4917526;29;20051;-51
2023/06/20 00:50:34;;;;;;;5.43;3.38;;;24.50;1.00;;;;;;4918614;29;20054;-53
2023/06/20 00:53:06;;;;;;;5.70;3.45;;;24.50;1.00;;;;;;4918553;29;20420;-53
2023/06/20 00:55:35;;;;;;;6.37;4.00;;;24.50;1.00;;;;;;4917491;29;20132;-51
2023/06/20 00:58:03;;;;;;;5.00;3.58;;;24.50;1.00;;;;;;4917323;29;20084;-50
2023/06/20 01:00:33;;;;;;;5.85;3.30;;;24.50;1.00;;;;;;4917405;29;20044;-51
2023/06/20 01:03:13;;;;;;;7.00;4.28;;;24.50;1.00;;;;;;4918337;29;20067;-51
2023/06/20 01:05:43;;;;;;;5.35;3.70;;;24.50;1.00;;;;;;4918633;29;20090;-51
2023/06/20 01:08:33;;;;;;;8.77;3.53;;;24.50;1.00;;;;;;4918933;29;20400;-51
2023/06/20 01:11:23;;;;;;;7.07;3.90;;;24.50;1.00;;;;;;4916891;29;20496;-52
2023/06/20 01:14:23;;;;;;;9.13;4.00;;;24.50;1.00;;;;;;4916923;29;20151;-52
2023/06/20 01:17:29;;;;;;;5.75;3.35;;;24.50;1.00;;;;;;4917089;29;20055;-53
2023/06/20 01:20:05;;;;;;;5.60;3.78;;;24.50;1.00;;;;;;4905640;29;20143;-52
2023/06/20 01:23:10;;;;;;;9.18;4.40;;;24.40;1.00;;;;;;4916699;29;20052;-51
2023/06/20 01:25:59;;;;;;;5.82;4.13;;;24.40;1.00;;;;;;4916803;29;20048;-55
2023/06/20 01:28:32;;;;;;;6.65;3.97;;;24.40;1.00;;;;;;4916505;29;20063;-51
2023/06/20 01:31:18;;;;;;;5.45;4.00;;;24.40;1.00;;;;;;4973882;23;20462;-53
2023/06/20 01:33:56;;;;;;;4.57;3.15;;;24.40;1.00;;;;;;4956027;29;20126;-51
2023/06/20 01:36:27;;;;;;;5.07;3.97;;;24.40;1.00;;;;;;4939012;29;20108;-52
2023/06/20 01:39:02;;;;;;;6.20;4.13;;;24.40;1.00;;;;;;4956010;29;20043;-50
2023/06/20 01:41:31;;;;;;;5.35;3.78;;;24.40;1.00;;;;;;4937601;29;20040;-51
2023/06/20 01:44:01;;;;;;;4.55;3.22;;;24.40;1.00;;;;;;4954459;29;20062;-52
2023/06/20 01:46:32;;;;;;;6.57;3.72;;;24.50;1.00;;;;;;4938833;29;20090;-51
2023/06/20 01:49:00;;;;;;;5.85;3.78;;;24.40;1.00;;;;;;4955869;29;20407;-50
2023/06/20 01:51:29;;;;;;;7.20;4.60;;;24.40;1.00;;;;;;4955739;29;20066;-50
2023/06/20 01:53:57;;;;;;;7.43;4.45;;;24.40;1.00;;;;;;4955412;29;20070;-51
2023/06/20 01:56:26;;;;;;;6.05;3.97;;;24.40;1.00;;;;;;4948276;29;20042;-50
2023/06/20 01:58:54;;;;;;;6.30;4.07;;;24.40;1.00;;;;;;4935175;29;20051;-52
2023/06/20 02:01:22;;;;;;;5.13;3.83;;;24.40;1.00;;;;;;5041555;23;20064;-51
2023/06/20 02:03:51;;;;;;;5.85;3.85;;;24.40;1.00;;;;;;4899889;29;20144;-52
2023/06/20 02:06:20;;;;;;;10.45;3.83;;;24.40;1.00;;;;;;4912853;29;20060;-51
2023/06/20 02:08:48;;;;;;;7.85;4.28;;;24.40;1.00;;;;;;4911389;29;20083;-52
2023/06/20 02:11:15;;;;;;;5.20;4.03;;;24.40;1.00;;;;;;4909352;29;20051;-50
2023/06/20 02:13:42;;;;;;;6.20;4.30;;;24.40;1.00;;;;;;4911336;29;20422;-53
2023/06/20 02:16:11;;;;;;;6.72;4.20;;;24.40;1.00;;;;;;4898345;29;20058;-50
2023/06/20 02:18:38;;;;;;;9.35;4.10;;;24.40;1.00;;;;;;4915912;29;20056;-52
2023/06/20 02:21:12;;;;;;;6.53;4.32;;;24.40;1.00;;;;;;4915647;29;20058;-51
2023/06/20 02:23:40;;;;;;;9.57;4.65;;;24.40;1.00;;;;;;4913565;29;20123;-51
2023/06/20 02:26:14;;;;;;;6.95;3.97;;;24.40;1.00;;;;;;4907944;29;20060;-54
2023/06/20 02:28:45;;;;;;;4.93;3.65;;;24.40;1.00;;;;;;4905792;29;20048;-50
2023/06/20 02:31:24;;;;;;;5.82;3.63;;;24.40;1.00;;;;;;5182663;23;20151;-50
2023/06/20 02:33:56;;;;;;;6.55;3.83;;;24.40;1.00;;;;;;4915419;29;20524;-52
2023/06/20 02:36:29;;;;;;;6.43;3.58;;;24.40;1.00;;;;;;4916756;29;20036;-53
2023/06/20 02:38:57;;;;;;;6.07;4.35;;;24.40;1.00;;;;;;4915878;29;20044;-51
2023/06/20 02:41:24;;;;;;;8.13;4.68;;;24.40;1.00;;;;;;4904477;29;20404;-50
2023/06/20 02:43:51;;;;;;;6.25;4.00;;;24.40;1.00;;;;;;4896523;29;20061;-50
2023/06/20 02:46:44;;;;;;;6.50;4.32;;;24.40;1.00;;;;;;4896709;29;20048;-51
2023/06/20 02:49:32;;;;;;;8.27;4.03;;;24.40;1.00;;;;;;4903243;29;20048;-50
2023/06/20 02:52:11;;;;;;;6.53;4.13;;;24.40;1.00;;;;;;4897414;29;20045;-50
2023/06/20 02:55:08;;;;;;;5.32;3.83;;;24.40;1.00;;;;;;4909208;29;20048;-50
2023/06/20 02:57:39;;;;;;;7.57;3.83;;;24.40;1.00;;;;;;4915207;29;20131;-52
2023/06/20 03:00:09;;;;;;;4.93;3.75;;;24.40;1.00;;;;;;4900188;29;20123;-51
2023/06/20 03:05:43;;;;;;;6.60;4.43;;;24.40;1.00;;;;;;4875937;29;20059;-50
2023/06/20 03:08:17;;;;;;;6.95;3.90;;;24.40;1.00;;;;;;4862029;29;20060;-50
2023/06/20 03:10:45;;;;;;;6.18;4.05;;;24.40;1.00;;;;;;4861913;29;20049;-51
2023/06/20 03:13:14;;;;;;;5.07;3.65;;;24.40;1.00;;;;;;4861613;29;20085;-52
2023/06/20 03:15:42;;;;;;;6.75;3.60;;;24.40;1.00;;;;;;4861880;29;20049;-52
2023/06/20 03:18:11;;;;;;;5.85;4.15;;;24.40;1.00;;;;;;4861942;29;20556;-51
2023/06/20 03:20:43;;;;;;;5.22;4.10;;;24.40;1.00;;;;;;4861855;29;20458;-50
2023/06/20 03:23:10;;;;;;;5.05;3.80;;;24.40;1.00;;;;;;4861653;29;20527;-50
2023/06/20 03:25:37;;;;;;;5.70;4.43;;;24.30;1.00;;;;;;4861694;29;20073;-50
2023/06/20 03:28:04;;;;;;;7.10;3.70;;;24.40;1.00;;;;;;4861819;29;20057;-50
2023/06/20 03:30:31;;;;;;;4.28;3.20;;;24.40;1.00;;;;;;4864987;29;20044;-51
2023/06/20 03:32:59;;;;;;;7.35;3.47;;;24.30;1.00;;;;;;4864317;29;20509;-50
2023/06/20 03:35:26;;;;;;;5.53;3.92;;;24.30;1.00;;;;;;4944943;23;20043;-50
2023/06/20 03:37:54;;;;;;;6.55;3.67;;;24.40;1.00;;;;;;4933657;29;20134;-51
2023/06/20 03:40:23;;;;;;;4.40;3.60;;;24.30;1.00;;;;;;4936492;29;20051;-50
2023/06/20 03:42:51;;;;;;;6.68;3.95;;;24.30;1.00;;;;;;4953460;29;20111;-50
2023/06/20 03:45:19;;;;;;;6.93;3.25;;;24.30;1.00;;;;;;4952502;29;20047;-50
2023/06/20 03:47:46;;;;;;;6.45;4.50;;;24.30;1.00;;;;;;4952513;29;20058;-52
2023/06/20 03:50:14;;;;;;;4.68;3.58;;;24.30;1.00;;;;;;4952088;29;20059;-50
2023/06/20 03:52:42;;;;;;;6.18;4.00;;;24.30;1.00;;;;;;4952538;29;20089;-50
2023/06/20 03:55:09;;;;;;;6.38;3.33;;;24.30;1.00;;;;;;4952069;29;20072;-50
2023/06/20 03:57:36;;;;;;;5.20;3.90;;;24.30;1.00;;;;;;4952614;29;20459;-50
2023/06/20 04:00:09;;;;;;;7.55;3.63;;;24.30;1.00;;;;;;4953458;28;20098;-50
2023/06/20 04:02:43;;;;;;;4.93;3.60;;;24.30;1.00;;;;;;4952144;29;20411;-51
2023/06/20 04:05:11;;;;;;;8.98;3.85;;;24.30;1.00;;;;;;4952313;29;20502;-52
2023/06/20 04:07:42;;;;;;;6.22;3.67;;;24.30;1.00;;;;;;4953497;29;20055;-50
2023/06/20 04:10:13;;;;;;;4.72;3.38;;;24.30;1.00;;;;;;4951825;29;20150;-52
2023/06/20 04:12:41;;;;;;;5.07;3.70;;;24.30;1.00;;;;;;4949782;29;20099;-51
2023/06/20 04:15:09;;;;;;;8.20;4.38;;;24.30;1.00;;;;;;4943163;29;20159;-53
2023/06/20 04:17:40;;;;;;;6.47;4.25;;;24.30;1.00;;;;;;4943723;29;20519;-53
2023/06/20 04:20:14;;;;;;;9.80;4.28;;;24.30;1.00;;;;;;4941010;29;20455;-50
2023/06/20 04:22:45;;;;;;;8.77;4.90;;;24.20;1.00;;;;;;4953114;28;20054;-51
2023/06/20 04:25:16;;;;;;;5.88;4.00;;;24.20;1.00;;;;;;4951866;29;20051;-50
2023/06/20 04:27:55;;;;;;;9.32;5.63;;;24.20;1.00;;;;;;4952227;29;20081;-51
2023/06/20 04:30:25;;;;;;;11.35;4.57;;;24.20;1.00;;;;;;4950454;29;20102;-50
2023/06/20 04:32:53;;;;;;;6.43;3.90;;;24.20;1.00;;;;;;4951728;29;20086;-51
2023/06/20 04:35:21;;;;;;;15.93;4.82;;;24.20;1.00;;;;;;5026272;23;20515;-50
2023/06/20 04:37:51;;;;;;;10.05;4.53;;;24.20;1.00;;;;;;4913968;29;20103;-50
2023/06/20 04:40:21;;;;;;;12.65;4.35;;;24.20;1.00;;;;;;4913496;29;20048;-53
2023/06/20 04:42:48;;;;;;;6.95;3.80;;;24.20;1.00;;;;;;4913527;29;20043;-52
2023/06/20 04:45:15;;;;;;;6.93;3.47;;;24.20;1.00;;;;;;4914888;29;20111;-49
2023/06/20 04:47:42;;;;;;;7.28;4.15;;;24.20;1.00;;;;;;4915228;29;20536;-51
2023/06/20 04:50:09;;;;;;;6.82;4.03;;;24.20;1.00;;;;;;4913539;29;20048;-54
2023/06/20 04:52:37;;;;;;;9.30;3.95;;;24.20;1.00;;;;;;4913442;29;20072;-52
2023/06/20 04:55:04;;;;;;;15.50;4.85;;;24.20;1.00;;;;;;4914860;29;20040;-51
2023/06/20 04:57:32;;;;;;;8.70;4.18;;;24.20;1.00;;;;;;4913550;29;20453;-52
2023/06/20 04:59:59;;;;;;;7.40;4.30;;;24.20;1.00;;;;;;4914733;29;20511;-51
2023/06/20 05:02:26;;;;;;;8.27;4.10;;;24.20;1.00;;;;;;4914688;29;20044;-51
2023/06/20 05:04:54;;;;;;;6.25;4.28;;;24.20;1.00;;;;;;4913592;29;20072;-53
2023/06/20 05:07:22;;;;;;;9.25;5.00;;;24.20;1.00;;;;;;5100424;23;20531;-55
2023/06/20 05:09:50;;;;;;;11.73;4.63;;;24.20;1.00;;;;;;4932453;29;20055;-52
2023/06/20 05:12:16;;;;;;;7.75;3.95;;;24.20;1.00;;;;;;4914813;29;20420;-50
2023/06/20 05:14:43;;;;;;;8.65;3.70;;;24.20;1.00;;;;;;4914709;29;20047;-50
2023/06/20 05:17:10;;;;;;;5.78;3.67;;;24.20;1.00;;;;;;4917490;29;20051;-54
2023/06/20 05:19:37;;;;;;;5.88;3.92;;;24.20;1.00;;;;;;4918273;29;20036;-51
2023/06/20 05:22:04;;;;;;;8.50;3.92;;;24.20;1.00;;;;;;4917669;29;20465;-51
2023/06/20 05:24:31;;;;;;;6.70;4.28;;;24.20;1.00;;;;;;4917902;29;20400;-55
2023/06/20 05:26:58;;;;;;;4.57;3.10;;;24.20;1.00;;;;;;4918001;29;20127;-52
2023/06/20 05:29:25;;;;;;;7.03;3.33;;;24.20;1.00;;;;;;4917904;29;20488;-51
2023/06/20 05:31:52;;;;;;;7.05;4.03;;;24.20;1.00;;;;;;4917651;29;20078;-55
2023/06/20 05:34:19;;;;;;;6.05;3.47;;;24.20;1.00;;;;;;4917785;29;20389;-51
2023/06/20 05:36:47;;;;;;;9.50;4.45;;;24.20;1.00;;;;;;5085618;23;20075;-52
2023/06/20 05:39:14;;;;;;;4.78;3.28;;;24.20;1.00;;;;;;4904054;29;20123;-55
2023/06/20 05:41:42;;;;;;;8.73;4.10;;;24.20;1.00;;;;;;4898563;29;20072;-51
2023/06/20 05:44:09;;;;;;;4.80;3.55;;;24.20;1.00;;;;;;4898739;29;20132;-53
2023/06/20 05:46:36;;;;;;;5.93;4.20;;;24.20;1.00;;;;;;4898782;29;20104;-56
2023/06/20 05:49:03;;;;;;;6.30;3.22;;;24.20;1.00;;;;;;4898884;29;20091;-55
2023/06/20 05:51:30;;;;;;;7.38;3.38;;;24.20;1.00;;;;;;4898473;29;20072;-52
2023/06/20 05:53:57;;;;;;;12.27;3.90;;;24.20;1.00;;;;;;4898408;29;20052;-54
2023/06/20 05:56:25;;;;;;;8.05;4.07;;;24.10;1.00;;;;;;4898500;29;20044;-50
2023/06/20 05:58:52;;;;;;;5.47;3.53;;;24.20;1.00;;;;;;4898514;29;20077;-50
2023/06/20 06:01:19;;;;;;;7.05;3.67;;;24.20;1.00;;;;;;4898222;29;20045;-50
2023/06/20 06:03:49;;;;;;;5.40;3.72;;;24.20;1.00;;;;;;4898353;29;20146;-52
2023/06/20 06:06:24;;;;;;;4.72;3.58;;;24.20;1.00;;;;;;4899187;29;20096;-56
2023/06/20 06:08:50;;;;;;;6.07;3.65;;;24.20;1.00;;;;;;4901318;29;20116;-50
2023/06/20 06:11:17;;;;;;;5.22;4.15;;;24.20;1.00;;;;;;4914425;29;20048;-50
2023/06/20 06:13:44;;;;;;;8.13;3.72;;;24.20;1.00;;;;;;4916912;29;20127;-50
2023/06/20 06:16:12;;;;;;;6.45;4.68;;;24.20;1.00;;;;;;4917059;29;20074;-50
2023/06/20 06:18:39;;;;;;;7.15;3.63;;;24.20;1.00;;;;;;4917152;29;20044;-50
2023/06/20 06:21:07;;;;;;;7.13;4.07;;;24.20;1.00;;;;;;4916710;29;20555;-55
2023/06/20 06:23:34;;;;;;;4.47;3.50;;;24.20;1.00;;;;;;4916765;29;20052;-52
2023/06/20 06:26:00;;;;;;;5.97;3.42;;;24.20;1.00;;;;;;4916791;29;20051;-53
2023/06/20 06:28:30;;;;;;;4.75;3.97;;;24.20;1.00;;;;;;4916558;29;20051;-51
2023/06/20 06:31:02;;;;;;;6.63;4.13;;;24.20;1.00;;;;;;4916454;29;20036;-51
2023/06/20 06:33:29;;;;;;;6.13;4.25;;;24.20;1.00;;;;;;4916421;29;20048;-51
2023/06/20 06:35:56;;;;;;;5.50;3.53;;;24.30;1.00;;;;;;4916671;29;20063;-50
2023/06/20 06:38:23;;;;;;;6.38;3.88;;;24.30;1.00;;;;;;4907635;29;20055;-51
2023/06/20 06:40:54;;;;;;;8.05;3.92;;;24.30;1.00;;;;;;4897723;29;20124;-50
2023/06/20 06:43:21;;;;;;;6.60;3.88;;;24.30;1.00;;;;;;4897460;29;20516;-51
2023/06/20 06:45:49;;;;;;;5.30;3.83;;;24.30;1.00;;;;;;4896332;29;20104;-53
2023/06/20 06:48:16;;;;;;;5.32;3.38;;;24.30;1.00;;;;;;4896327;29;20044;-50
2023/06/20 06:50:43;;;;;;;4.80;3.80;;;24.30;1.00;;;;;;4897479;29;20083;-50
2023/06/20 06:53:13;;;;;;;7.22;4.13;;;24.30;1.00;;;;;;4897444;29;20092;-57
2023/06/20 06:55:46;;;;;;;6.72;3.70;;;24.30;1.00;;;;;;4908527;29;20058;-56
2023/06/20 06:58:13;;;;;;;7.72;3.58;;;24.30;1.00;;;;;;4916635;29;20048;-56
2023/06/20 07:00:40;;;;;;;5.03;3.72;;;24.30;1.00;;;;;;4916107;29;20043;-56
2023/06/20 07:03:08;;;;;;;10.93;4.07;;;24.30;1.00;;;;;;4916114;29;20076;-57
2023/06/20 07:05:35;;;;;;;4.50;3.60;;;24.30;1.00;;;;;;4915977;29;20048;-55
2023/06/20 07:08:02;;;;;;;4.63;3.20;;;24.30;1.00;;;;;;5130456;23;20022;-54
2023/06/20 07:10:29;;;;;;;7.97;3.97;;;24.40;1.00;;;;;;4911926;29;20075;-57
2023/06/20 07:12:56;;;;;;;12.07;4.10;;;24.40;1.00;;;;;;4904781;29;20523;-56
2023/06/20 07:15:23;;;;;;;4.63;3.47;;;24.40;1.00;;;;;;4905856;29;20044;-55
2023/06/20 07:17:50;;;;;;;6.63;3.80;;;24.40;1.00;;;;;;4908245;29;20461;-57
2023/06/20 07:20:17;;;;;;;10.43;3.90;;;24.40;1.00;;;;;;4907527;29;20048;-56
2023/06/20 07:22:47;;;;;;;5.53;4.40;;;24.40;1.00;;;;;;4904786;29;20040;-51
2023/06/20 07:25:16;;;;;;;8.25;4.05;;;24.40;1.00;;;;;;4904831;29;20060;-50
2023/06/20 07:27:43;;;;;;;5.97;3.47;;;24.40;1.00;;;;;;4908302;29;20044;-53
2023/06/20 07:30:11;;;;;;;5.93;3.53;;;24.40;1.00;;;;;;4915662;29;20492;-55
2023/06/20 07:32:38;;;;;;;5.25;3.63;;;24.40;1.00;;;;;;4915324;29;20044;-51
2023/06/20 07:35:05;;;;;;;12.60;3.92;;;24.40;1.00;;;;;;4914152;29;20040;-51
2023/06/20 07:37:32;;;;;;;7.15;4.47;;;24.40;1.00;;;;;;4915469;29;20055;-56
2023/06/20 07:39:59;;;;;;;5.28;3.85;;;24.40;1.00;;;;;;4914890;29;20533;-52
2023/06/20 07:42:25;;;;;;;6.78;4.38;;;24.40;1.00;;;;;;5191215;23;20123;-55
2023/06/20 07:44:52;;;;;;;5.47;4.18;;;24.40;1.00;;;;;;4934599;29;20122;-57
2023/06/20 07:47:19;;;;;;;4.90;3.65;;;24.40;1.00;;;;;;4934725;29;20083;-54
2023/06/20 07:49:46;;;;;;;6.72;3.92;;;24.40;1.00;;;;;;4933047;29;20070;-54
2023/06/20 07:52:13;;;;;;;5.00;4.35;;;24.40;1.00;;;;;;4934086;29;20473;-57
2023/06/20 07:54:40;;;;;;;7.35;4.10;;;24.50;1.00;;;;;;4934462;29;20118;-52
2023/06/20 07:57:07;;;;;;;8.80;4.10;;;24.50;1.00;;;;;;4934139;29;20051;-56
2023/06/20 07:59:34;;;;;;;5.90;4.05;;;24.50;1.00;;;;;;4934214;29;20043;-56
2023/06/20 08:02:00;;;;;;;6.68;4.63;;;24.50;1.00;;;;;;4933916;29;20050;-56
2023/06/20 08:04:27;;;;;;;5.53;4.07;;;24.50;1.00;;;;;;4934197;29;20040;-55
2023/06/20 08:06:54;;;;;;;5.95;4.60;;;24.50;1.00;;;;;;4934283;29;20048;-56
2023/06/20 08:09:21;;;;;;;7.65;4.35;;;24.50;1.00;;;;;;4934010;29;20102;-51
2023/06/20 08:11:47;;;;;;;6.15;4.32;;;24.50;1.00;;;;;;4933921;29;20067;-55
2023/06/20 08:14:16;;;;;;;5.60;4.38;;;24.50;1.00;;;;;;5115194;23;20043;-54
2023/06/20 08:16:43;;;;;;;7.10;4.45;;;24.50;1.00;;;;;;4953314;28;20086;-56
2023/06/20 08:19:10;;;;;;;6.47;4.57;;;24.60;1.00;;;;;;4953177;29;20044;-53
2023/06/20 08:21:38;;;;;;;6.97;4.47;;;24.50;1.00;;;;;;4953039;29;20044;-55
2023/06/20 08:24:05;;;;;;;10.65;5.28;;;24.60;1.00;;;;;;4953101;28;20126;-56
2023/06/20 08:26:32;;;;;;;6.82;4.68;;;24.60;1.00;;;;;;4953087;29;20066;-52
2023/06/20 08:28:59;;;;;;;6.65;4.55;;;24.60;1.00;;;;;;4953249;29;20050;-53
2023/06/20 08:31:37;;;;;;;7.70;4.60;;;24.60;1.00;;;;;;4952854;29;20234;-55
2023/06/20 08:34:05;;;;;;;5.70;4.13;;;24.60;1.00;;;;;;4952907;29;20511;-54
2023/06/20 08:36:32;;;;;;;6.80;4.50;;;24.60;1.00;;;;;;4953033;28;20043;-56
2023/06/20 08:39:00;;;;;;;7.28;4.68;;;24.60;1.00;;;;;;4953258;28;20049;-53
2023/06/20 08:41:28;;;;;;;5.90;4.60;;;24.60;1.00;;;;;;4952716;28;20082;-50
2023/06/20 08:43:55;;;;;;;7.70;4.70;;;24.60;1.00;;;;;;4950712;29;20062;-49
2023/06/20 08:46:24;;;;;;;6.68;4.15;;;24.60;1.00;;;;;;4933788;29;20048;-52
2023/06/20 08:48:52;;;;;;;5.93;4.60;;;24.60;1.00;;;;;;4933794;29;20103;-50
2023/06/20 08:51:21;;;;;;;6.25;4.25;;;24.60;1.00;;;;;;4937189;29;20039;-55
2023/06/20 08:53:50;;;;;;;5.45;4.55;;;24.60;1.00;;;;;;4937233;29;20047;-50
2023/06/20 08:56:19;;;;;;;9.02;5.10;;;24.60;1.00;;;;;;4937399;29;20052;-54
2023/06/20 08:58:46;;;;;;;6.47;4.80;;;24.60;1.00;;;;;;4937343;29;20467;-52
2023/06/20 09:01:13;;;;;;;10.32;4.43;;;24.60;1.00;;;;;;4936205;29;20531;-50
2023/06/20 09:03:40;;;;;;;5.00;4.45;;;24.60;1.00;;;;;;4937020;29;20551;-53
2023/06/20 09:06:08;;;;;;;7.53;4.38;;;24.60;1.00;;;;;;4937231;29;20043;-54
2023/06/20 09:08:37;;;;;;;6.28;5.00;;;24.60;1.00;;;;;;4937722;29;20044;-54
2023/06/20 09:11:08;;;;;;;8.23;4.70;;;24.60;1.00;;;;;;4937230;29;20040;-54
2023/06/20 09:13:36;;;;;;;7.07;4.88;;;24.60;1.00;;;;;;4954946;29;20058;-53
2023/06/20 09:16:07;;;;;;;7.32;4.40;;;24.60;1.00;;;;;;4971470;23;20459;-50
2023/06/20 09:18:35;;;;;;;8.55;5.07;;;24.60;1.00;;;;;;4956247;28;20098;-50
2023/06/20 09:21:03;;;;;;;7.68;5.60;;;24.60;1.00;;;;;;4956198;28;20046;-55
2023/06/20 09:23:32;;;;;;;8.20;4.80;;;24.60;1.00;;;;;;4956021;28;20045;-57
2023/06/20 09:26:16;;;;;;;6.50;4.40;;;24.70;1.00;;;;;;4956154;28;20036;-57
2023/06/20 09:28:46;;;;;;;6.75;4.78;;;24.60;1.00;;;;;;4956147;28;20039;-57
2023/06/20 09:31:14;;;;;;;7.43;5.40;;;24.70;1.00;;;;;;4956064;28;20066;-57
2023/06/20 09:33:41;;;;;;;8.75;5.65;;;24.70;1.00;;;;;;4955845;28;20046;-57
2023/06/20 09:36:16;;;;;;;5.97;4.10;;;24.70;1.00;;;;;;4956153;28;20403;-57
2023/06/20 09:38:44;;;;;;;6.43;5.00;;;24.70;1.00;;;;;;4929387;29;20119;-57
2023/06/20 09:41:18;;;;;;;7.00;4.97;;;24.70;1.00;;;;;;4936839;29;20046;-56
2023/06/20 09:43:45;;;;;;;6.57;4.57;;;24.70;1.00;;;;;;4936910;29;20040;-53
2023/06/20 09:46:12;;;;;;;6.38;5.10;;;24.70;1.00;;;;;;4944329;29;20098;-53
2023/06/20 09:48:40;;;;;;;6.50;5.47;;;24.70;1.00;;;;;;4937684;28;20043;-56
2023/06/20 09:51:08;;;;;;;9.50;5.75;;;24.70;1.00;;;;;;4936470;29;20048;-57
2023/06/20 09:53:46;;;;;;;8.07;5.00;;;24.70;1.00;;;;;;4936502;29;20050;-54
2023/06/20 09:56:16;;;;;;;6.47;5.07;;;24.70;1.00;;;;;;4936628;29;20050;-57
2023/06/20 09:58:45;;;;;;;7.22;5.57;;;24.70;1.00;;;;;;4936714;29;20114;-56
2023/06/20 10:01:20;;;;;;;9.13;5.68;;;24.70;1.00;;;;;;4935672;29;20511;-55
2023/06/20 10:03:48;;;;;;;6.38;5.65;;;24.70;1.00;;;;;;4936300;29;20043;-52
2023/06/20 10:06:15;;;;;;;5.75;4.93;;;24.80;1.00;;;;;;4936537;29;20039;-53
2023/06/20 10:08:43;;;;;;;7.00;5.88;;;24.80;1.00;;;;;;4936381;29;20047;-52
2023/06/20 10:11:10;;;;;;;6.72;5.78;;;24.80;1.00;;;;;;4936422;29;20060;-55
2023/06/20 10:13:38;;;;;;;10.20;5.85;;;24.80;1.00;;;;;;4936076;29;20507;-56
2023/06/20 10:18:56;;;;;;;7.05;5.80;;;24.80;1.00;;;;;;4896858;29;20104;-55
2023/06/20 10:21:54;;;;;;;6.60;5.07;;;24.80;1.00;;;;;;4897954;29;20040;-57
2023/06/20 10:24:27;;;;;;;7.40;5.85;;;24.80;1.00;;;;;;4898143;29;20040;-56
2023/06/20 10:27:03;;;;;;;7.25;5.22;;;24.80;1.00;;;;;;4898118;29;20072;-53
2023/06/20 10:29:41;;;;;;;7.13;6.00;;;24.80;1.00;;;;;;4898058;29;20048;-56
2023/06/20 10:32:11;;;;;;;8.25;5.25;;;24.80;1.00;;;;;;4897566;29;20044;-55
2023/06/20 10:34:39;;;;;;;9.88;5.32;;;24.80;1.00;;;;;;4897876;29;20052;-57
2023/06/20 10:37:14;;;;;;;7.88;5.88;;;24.80;1.00;;;;;;4897919;29;20127;-56
2023/06/20 10:39:54;;;;;;;8.77;6.22;;;24.80;1.00;;;;;;4897810;29;20052;-57
2023/06/20 10:42:38;;;;;;;9.07;6.15;;;24.80;1.00;;;;;;4897548;29;20049;-57
2023/06/20 10:45:25;;;;;;;9.73;6.97;;;24.90;1.00;;;;;;4897804;29;20045;-56
2023/06/20 10:47:53;;;;;;;12.98;6.38;;;24.80;1.00;;;;;;4897964;29;20104;-56
2023/06/20 10:50:21;;;;;;;7.65;5.88;;;24.80;1.00;;;;;;4897245;29;20442;-57
2023/06/20 10:52:48;;;;;;;8.40;5.70;;;24.80;1.00;;;;;;4897619;29;20045;-53
2023/06/20 10:55:26;;;;;;;7.80;5.30;;;24.80;1.00;;;;;;4897620;29;20049;-56
2023/06/20 10:57:54;;;;;;;7.20;5.85;;;24.80;1.00;;;;;;4897538;29;20092;-57
2023/06/20 11:00:21;;;;;;;8.60;6.15;;;24.80;1.00;;;;;;4897402;29;20088;-57
2023/06/20 11:02:49;;;;;;;8.65;6.20;;;24.90;1.00;;;;;;4897094;29;20714;-57
2023/06/20 11:05:17;;;;;;;7.97;6.50;;;24.90;1.00;;;;;;4897432;29;20041;-57
2023/06/20 11:07:51;;;;;;;6.68;5.80;;;24.90;1.00;;;;;;4897432;29;20040;-55
2023/06/20 11:10:31;;;;;;;8.23;6.63;;;24.90;1.00;;;;;;4897423;29;20044;-54
2023/06/20 11:13:00;;;;;;;9.57;5.70;;;24.90;1.00;;;;;;4897428;29;20051;-57
2023/06/20 11:15:28;;;;;;;11.90;6.30;;;24.90;1.00;;;;;;4897146;29;20044;-57
2023/06/20 11:17:57;;;;;;;9.55;6.00;;;24.90;1.00;;;;;;4897234;29;20039;-56
2023/06/20 11:20:25;;;;;;;7.05;6.10;;;24.90;1.00;;;;;;4978515;23;20048;-55
2023/06/20 11:22:58;;;;;;;7.43;5.68;;;24.90;1.00;;;;;;4915847;29;20139;-57
2023/06/20 11:25:30;;;;;;;8.18;6.47;;;24.90;1.00;;;;;;4916020;29;20040;-57
2023/06/20 11:28:10;;;;;;;10.52;6.13;;;24.90;1.00;;;;;;4916037;29;20519;-57
2023/06/20 11:30:48;;;;;;;10.13;6.63;;;24.90;1.00;;;;;;4915842;29;20496;-52
2023/06/20 11:33:16;;;;;;;6.95;5.95;;;24.90;1.00;;;;;;4914365;29;20048;-57
2023/06/20 11:35:56;;;;;;;8.45;5.88;;;24.90;1.00;;;;;;4915739;29;20044;-57
2023/06/20 11:38:25;;;;;;;8.05;6.57;;;24.90;1.00;;;;;;4915872;29;20050;-55
2023/06/20 11:41:03;;;;;;;7.05;6.03;;;24.90;1.00;;;;;;4915566;29;20039;-56
2023/06/20 11:43:40;;;;;;;9.65;7.05;;;25.00;1.00;;;;;;4915510;29;20377;-57
2023/06/20 11:46:11;;;;;;;8.68;6.60;;;24.90;1.00;;;;;;4916020;29;20075;-57
2023/06/20 11:48:49;;;;;;;9.30;6.40;;;24.90;1.00;;;;;;4915652;29;20104;-54
2023/06/20 11:51:15;;;;;;;9.43;6.90;;;24.90;1.00;;;;;;4914534;29;20131;-56
2023/06/20 11:53:45;;;;;;;9.10;6.22;;;24.90;1.00;;;;;;4915466;29;20036;-55
2023/06/20 11:56:13;;;;;;;8.65;6.38;;;25.00;1.00;;;;;;4915611;29;20044;-57
2023/06/20 11:58:45;;;;;;;6.88;6.15;;;25.00;1.00;;;;;;4915441;29;20071;-56
2023/06/20 12:01:17;;;;;;;7.22;6.22;;;25.00;1.00;;;;;;4915563;29;20028;-57
2023/06/20 12:03:45;;;;;;;6.88;5.80;;;25.00;1.00;;;;;;4915294;29;20044;-57
2023/06/20 12:06:28;;;;;;;8.88;6.38;;;25.00;1.00;;;;;;4915247;29;20366;-57
2023/06/20 12:09:04;;;;;;;10.82;6.40;;;25.00;1.00;;;;;;4915605;29;20051;-56
2023/06/20 12:11:31;;;;;;;7.22;6.32;;;25.00;1.00;;;;;;4915199;29;20045;-57
2023/06/20 12:13:58;;;;;;;7.45;6.50;;;25.00;1.00;;;;;;4915097;29;20083;-56
2023/06/20 12:16:26;;;;;;;8.93;6.50;;;25.00;1.00;;;;;;4915140;29;20055;-54
2023/06/20 12:18:53;;;;;;;7.53;6.25;;;25.00;1.00;;;;;;4915480;29;20376;-56
2023/06/20 12:21:20;;;;;;;8.82;6.65;;;25.00;1.00;;;;;;5194395;23;20048;-56
2023/06/20 12:23:47;;;;;;;7.88;5.95;;;25.00;1.00;;;;;;4933951;29;20048;-57
2023/06/20 12:26:14;;;;;;;7.68;6.28;;;25.00;1.00;;;;;;4937463;29;20040;-56
2023/06/20 12:28:41;;;;;;;9.88;7.05;;;25.00;1.00;;;;;;4938037;29;20163;-56
2023/06/20 12:31:09;;;;;;;9.25;7.18;;;25.00;1.00;;;;;;4938027;29;20066;-54
2023/06/20 12:33:36;;;;;;;7.18;6.20;;;25.00;1.00;;;;;;4936844;29;20044;-57
2023/06/20 12:36:03;;;;;;;9.55;6.72;;;25.00;1.00;;;;;;4937956;29;20484;-57
2023/06/20 12:38:30;;;;;;;7.68;6.63;;;25.00;1.00;;;;;;4937867;29;20043;-56
2023/06/20 12:40:58;;;;;;;9.32;6.45;;;25.00;1.00;;;;;;4937850;29;20036;-56
2023/06/20 12:43:24;;;;;;;8.15;6.40;;;25.00;1.00;;;;;;4937577;29;20514;-57
2023/06/20 12:45:52;;;;;;;12.38;6.63;;;25.10;1.00;;;;;;4937852;29;20488;-57
2023/06/20 12:48:19;;;;;;;7.10;5.22;;;25.10;1.00;;;;;;4937635;29;20051;-56
2023/06/20 12:50:50;;;;;;;7.45;5.60;;;25.10;1.00;;;;;;4937576;29;20062;-56
2023/06/20 12:53:43;;;;;;;9.50;6.20;;;25.00;1.00;;;;;;5222202;23;20317;31
2023/06/20 12:56:10;;;;;;;8.55;6.18;;;25.10;1.00;;;;;;4879480;29;20037;-55
2023/06/20 12:58:37;;;;;;;8.27;6.28;;;25.10;1.00;;;;;;4880569;29;20049;-55
2023/06/20 13:01:04;;;;;;;9.63;6.47;;;25.10;1.00;;;;;;4870118;29;20072;-55
2023/06/20 13:03:31;;;;;;;8.55;6.18;;;25.10;1.00;;;;;;4880685;29;20041;-57
2023/06/20 13:05:58;;;;;;;8.35;6.57;;;25.10;1.00;;;;;;4880921;29;20132;-54
2023/06/20 13:08:26;;;;;;;8.07;6.00;;;25.10;1.00;;;;;;4880708;29;20041;-56
2023/06/20 13:10:53;;;;;;;8.18;5.95;;;25.10;1.00;;;;;;4880670;29;20041;-55
2023/06/20 13:13:20;;;;;;;9.13;6.45;;;25.10;1.00;;;;;;4880481;29;20041;-57
2023/06/20 13:15:47;;;;;;;6.28;5.55;;;25.10;1.00;;;;;;4880903;29;20132;-54
2023/06/20 13:18:14;;;;;;;9.07;5.65;;;25.10;1.00;;;;;;4880582;29;20041;-52